createdAt,value
2022-11-30T00:01:11.468Z,35.92
2022-11-30T00:03:39.159Z,38.97
2022-11-30T00:06:07.221Z,40.67
2022-11-30T00:11:02.104Z,38.30
2022-11-30T00:13:29.561Z,35.10
2022-11-30T00:16:02.444Z,37.58
2022-11-30T00:18:29.926Z,38.00
2022-11-30T00:21:00.582Z,38.88
2022-11-30T00:23:28.199Z,37.55
2022-11-30T00:25:55.675Z,37.50
2022-11-30T00:28:23.144Z,38.50
2022-11-30T00:30:58.563Z,36.95
2022-11-30T00:33:27.544Z,38.15
2022-11-30T00:35:59.293Z,38.80
2022-11-30T00:38:27.334Z,38.60
2022-11-30T00:43:22.133Z,36.47
2022-11-30T00:45:49.663Z,38.80
2022-11-30T00:48:17.161Z,36.47
2022-11-30T00:50:45.959Z,37.72
2022-11-30T00:53:13.436Z,37.75
2022-11-30T00:55:40.963Z,40.00
2022-11-30T00:58:08.839Z,40.72
2022-11-30T01:00:36.665Z,37.75
2022-11-30T01:03:04.738Z,35.95
2022-11-30T01:08:03.073Z,36.38
2022-11-30T01:10:30.587Z,37.28
2022-11-30T01:12:58.292Z,38.08
2022-11-30T01:15:25.778Z,39.90
2022-11-30T01:17:53.276Z,36.10
2022-11-30T01:20:21.081Z,39.05
2022-11-30T01:22:48.667Z,34.35
2022-11-30T01:25:17.580Z,39.05
2022-11-30T01:27:45.095Z,34.22
2022-11-30T01:30:13.227Z,37.42
2022-11-30T01:32:40.703Z,37.63
2022-11-30T01:35:08.947Z,36.25
2022-11-30T01:37:36.451Z,35.75
2022-11-30T01:40:04.466Z,36.15
2022-11-30T01:45:02.287Z,36.17
2022-11-30T01:47:34.092Z,36.65
2022-11-30T01:50:05.648Z,39.10
2022-11-30T01:52:38.258Z,38.08
2022-11-30T01:55:14.711Z,34.33
2022-11-30T01:57:49.158Z,34.40
2022-11-30T02:00:17.772Z,35.60
2022-11-30T02:02:54.090Z,34.33
2022-11-30T02:05:23.979Z,36.65
2022-11-30T02:07:51.637Z,38.30
2022-11-30T02:10:23.584Z,36.38
2022-11-30T02:13:09.608Z,33.40
2022-11-30T02:15:47.463Z,38.30
2022-11-30T02:21:09.555Z,37.38
2022-11-30T02:24:04.371Z,36.95
2022-11-30T02:26:56.742Z,37.40
2022-11-30T02:29:29.591Z,35.10
2022-11-30T02:32:05.745Z,36.88
2022-11-30T02:34:37.069Z,35.35
2022-11-30T02:37:07.602Z,36.35
2022-11-30T02:39:35.296Z,38.05
2022-11-30T02:42:02.856Z,39.33
2022-11-30T02:44:31.705Z,36.15
2022-11-30T02:47:10.770Z,36.67
2022-11-30T02:49:45.423Z,36.08
2022-11-30T02:52:15.515Z,41.05
2022-11-30T02:54:43.191Z,41.67
2022-11-30T02:57:10.695Z,36.33
2022-11-30T02:59:40.405Z,37.20
2022-11-30T03:02:07.953Z,37.80
2022-11-30T03:04:35.466Z,38.83
2022-11-30T03:07:03.025Z,39.35
2022-11-30T03:09:30.502Z,40.88
2022-11-30T03:11:57.995Z,38.63
2022-11-30T03:14:25.444Z,37.03
2022-11-30T03:16:54.307Z,42.00
2022-11-30T03:19:21.819Z,37.42
2022-11-30T03:21:49.298Z,40.90
2022-11-30T03:24:16.863Z,39.78
2022-11-30T03:26:44.358Z,39.13
2022-11-30T03:29:11.837Z,38.90
2022-11-30T03:31:39.390Z,37.40
2022-11-30T03:34:08.226Z,34.03
2022-11-30T03:36:35.741Z,39.63
2022-11-30T03:39:03.734Z,36.47
2022-11-30T03:41:31.225Z,39.80
2022-11-30T03:43:58.715Z,37.72
2022-11-30T03:46:27.392Z,41.03
2022-11-30T03:48:55.384Z,37.97
2022-11-30T03:51:24.163Z,40.55
2022-11-30T03:53:51.661Z,39.15
2022-11-30T03:56:19.192Z,39.60
2022-11-30T03:58:46.732Z,39.17
2022-11-30T04:01:16.063Z,38.70
2022-11-30T04:03:44.174Z,39.53
2022-11-30T04:08:42.446Z,35.20
2022-11-30T04:11:10.459Z,38.90
2022-11-30T04:16:07.244Z,38.67
2022-11-30T04:18:36.401Z,38.50
2022-11-30T04:21:04.626Z,42.40
2022-11-30T04:23:34.077Z,39.50
2022-11-30T04:26:03.446Z,39.75
2022-11-30T04:28:30.931Z,38.42
2022-11-30T04:31:00.321Z,41.40
2022-11-30T04:33:28.531Z,38.60
2022-11-30T04:35:58.546Z,40.15
2022-11-30T04:38:26.479Z,39.05
2022-11-30T04:40:54.391Z,41.35
2022-11-30T04:43:23.843Z,41.47
2022-11-30T04:45:51.410Z,41.30
2022-11-30T04:48:20.055Z,41.05
2022-11-30T04:50:47.551Z,39.22
2022-11-30T04:53:15.027Z,40.03
2022-11-30T04:55:42.479Z,41.53
2022-11-30T04:58:10.087Z,42.60
2022-11-30T05:00:39.036Z,42.40
2022-11-30T05:03:06.517Z,40.60
2022-11-30T05:05:33.982Z,39.38
2022-11-30T05:08:02.299Z,39.53
2022-11-30T05:10:30.294Z,40.15
2022-11-30T05:12:57.990Z,39.85
2022-11-30T05:15:25.821Z,38.45
2022-11-30T05:17:54.619Z,40.40
2022-11-30T05:20:22.094Z,40.88
2022-11-30T05:22:50.050Z,40.95
2022-11-30T05:27:45.231Z,39.65
2022-11-30T05:30:13.704Z,39.95
2022-11-30T05:32:41.170Z,37.03
2022-11-30T05:35:10.769Z,37.38
2022-11-30T05:37:38.331Z,38.50
2022-11-30T05:40:07.341Z,35.75
2022-11-30T05:42:34.836Z,38.30
2022-11-30T05:45:02.316Z,37.25
2022-11-30T05:47:29.803Z,41.17
2022-11-30T05:49:57.292Z,36.33
2022-11-30T05:52:26.108Z,35.58
2022-11-30T05:54:53.583Z,39.42
2022-11-30T05:57:21.060Z,39.20
2022-11-30T05:59:48.543Z,36.42
2022-11-30T06:02:16.174Z,37.95
2022-11-30T06:04:43.719Z,39.78
2022-11-30T06:07:11.891Z,40.58
2022-11-30T06:09:40.887Z,34.63
2022-11-30T06:12:08.975Z,41.25
2022-11-30T06:17:04.043Z,37.20
2022-11-30T06:19:31.662Z,36.00
2022-11-30T06:21:59.144Z,37.65
2022-11-30T06:24:26.629Z,34.88
2022-11-30T06:26:55.490Z,35.35
2022-11-30T06:29:23.020Z,37.38
2022-11-30T06:31:50.604Z,45.25
2022-11-30T06:34:18.104Z,35.80
2022-11-30T06:36:45.632Z,35.97
2022-11-30T06:39:13.525Z,38.28
2022-11-30T06:41:41.092Z,38.95
2022-11-30T06:44:10.755Z,35.95
2022-11-30T06:46:38.532Z,37.92
2022-11-30T06:49:06.206Z,35.97
2022-11-30T06:51:34.311Z,39.95
2022-11-30T06:56:29.168Z,36.17
2022-11-30T06:58:56.640Z,37.88
2022-11-30T07:01:25.562Z,35.63
2022-11-30T07:03:53.304Z,38.33
2022-11-30T07:06:20.988Z,39.83
2022-11-30T07:08:49.799Z,40.03
2022-11-30T07:11:17.371Z,36.88
2022-11-30T07:13:45.680Z,34.55
2022-11-30T07:16:15.608Z,35.45
2022-11-30T07:18:44.438Z,36.97
2022-11-30T07:21:12.075Z,39.08
2022-11-30T07:23:57.396Z,38.13
2022-11-30T07:26:25.841Z,39.53
2022-11-30T07:28:58.030Z,36.42
2022-11-30T07:31:27.715Z,38.33
2022-11-30T07:33:57.354Z,42.33
2022-11-30T07:36:29.612Z,39.35
2022-11-30T07:38:57.169Z,35.42
2022-11-30T07:41:24.748Z,39.20
2022-11-30T07:43:52.240Z,35.03
2022-11-30T07:46:19.920Z,38.40
2022-11-30T07:48:47.491Z,37.72
2022-11-30T07:51:18.043Z,37.33
2022-11-30T07:53:45.845Z,34.47
2022-11-30T07:56:16.436Z,33.97
2022-11-30T07:58:44.719Z,37.35
2022-11-30T08:01:13.874Z,36.22
2022-11-30T08:03:42.015Z,35.75
2022-11-30T08:08:42.393Z,38.53
2022-11-30T08:11:13.339Z,37.03
2022-11-30T08:13:40.828Z,41.63
2022-11-30T08:16:10.196Z,38.88
2022-11-30T08:18:37.803Z,39.35
2022-11-30T08:21:08.497Z,38.05
2022-11-30T08:23:39.062Z,38.70
2022-11-30T08:26:11.088Z,36.45
2022-11-30T08:28:38.659Z,36.83
2022-11-30T08:31:08.060Z,39.95
2022-11-30T08:33:37.135Z,37.95
2022-11-30T08:36:09.058Z,38.08
2022-11-30T08:38:37.367Z,36.70
2022-11-30T08:41:05.111Z,36.38
2022-11-30T08:43:34.499Z,38.00
2022-11-30T08:46:11.412Z,37.25
2022-11-30T08:48:49.231Z,36.63
2022-11-30T08:51:19.043Z,39.45
2022-11-30T08:53:47.075Z,37.47
2022-11-30T08:58:44.150Z,38.33
2022-11-30T09:01:13.920Z,38.88
2022-11-30T09:03:42.523Z,39.28
2022-11-30T09:06:12.803Z,38.50
2022-11-30T09:08:41.448Z,35.38
2022-11-30T09:11:10.735Z,39.13
2022-11-30T09:13:38.295Z,37.28
2022-11-30T09:16:08.233Z,41.28
2022-11-30T09:18:36.129Z,37.67
2022-11-30T09:21:05.458Z,36.10
2022-11-30T09:23:33.093Z,41.72
2022-11-30T09:26:04.448Z,37.92
2022-11-30T09:28:32.166Z,38.22
2022-11-30T09:31:02.848Z,31.88
2022-11-30T09:33:32.102Z,35.97
2022-11-30T09:36:00.815Z,105.80
2022-11-30T09:38:28.710Z,51.65
2022-11-30T09:40:58.746Z,47.60
2022-11-30T09:43:37.506Z,51.80
2022-11-30T09:46:08.657Z,57.67
2022-11-30T09:48:52.333Z,71.72
2022-11-30T09:51:23.518Z,46.17
2022-11-30T09:53:56.323Z,53.70
2022-11-30T09:56:29.461Z,58.65
2022-11-30T09:59:03.132Z,58.67
2022-11-30T10:01:32.990Z,57.85
2022-11-30T10:04:02.523Z,68.32
2022-11-30T10:06:39.833Z,67.18
2022-11-30T10:09:25.579Z,64.68
2022-11-30T10:12:00.242Z,51.17
2022-11-30T10:14:58.635Z,53.25
2022-11-30T10:17:39.065Z,53.65
2022-11-30T10:20:23.781Z,99.90
2022-11-30T10:23:07.999Z,61.50
2022-11-30T10:25:48.193Z,59.78
2022-11-30T10:28:45.565Z,56.08
2022-11-30T10:31:10.984Z,54.63
2022-11-30T10:33:44.182Z,56.70
2022-11-30T10:36:16.348Z,60.58
2022-11-30T10:38:47.701Z,60.85
2022-11-30T10:41:19.343Z,48.95
2022-11-30T10:43:52.918Z,58.67
2022-11-30T10:46:23.505Z,42.97
2022-11-30T10:48:55.653Z,44.70
2022-11-30T10:51:26.024Z,47.78
2022-11-30T10:53:53.633Z,43.35
2022-11-30T10:56:21.123Z,57.35
2022-11-30T10:58:56.251Z,60.58
2022-11-30T11:01:33.824Z,44.67
2022-11-30T11:04:17.215Z,45.50
2022-11-30T11:06:48.647Z,43.40
2022-11-30T11:09:35.138Z,68.00
2022-11-30T11:12:04.431Z,43.33
2022-11-30T11:14:36.459Z,65.05
2022-11-30T11:17:06.773Z,54.67
2022-11-30T11:19:38.178Z,43.03
2022-11-30T11:22:15.808Z,48.90
2022-11-30T11:24:43.750Z,51.67
2022-11-30T11:27:23.887Z,46.20
2022-11-30T11:30:01.924Z,50.47
2022-11-30T11:32:30.996Z,49.60
2022-11-30T11:34:59.344Z,71.63
2022-11-30T11:37:31.002Z,103.50
2022-11-30T11:40:01.669Z,63.67
2022-11-30T11:42:31.803Z,49.47
2022-11-30T11:45:01.632Z,38.45
2022-11-30T11:47:38.672Z,45.05
2022-11-30T11:50:50.300Z,57.47
2022-11-30T11:53:25.865Z,58.40
2022-11-30T11:55:57.415Z,73.50
2022-11-30T11:58:33.888Z,58.53
2022-11-30T12:01:31.518Z,57.75
2022-11-30T12:04:05.894Z,53.50
2022-11-30T12:06:35.198Z,54.45
2022-11-30T12:09:11.627Z,68.90
2022-11-30T12:11:43.474Z,64.93
2022-11-30T12:14:13.665Z,61.50
2022-11-30T12:17:02.159Z,63.60
2022-11-30T12:19:38.392Z,74.03
2022-11-30T12:22:17.299Z,71.45
2022-11-30T12:25:05.493Z,70.65
2022-11-30T12:27:42.455Z,57.13
2022-11-30T12:30:16.721Z,56.08
2022-11-30T12:33:09.430Z,64.18
2022-11-30T12:35:47.759Z,42.25
2022-11-30T12:38:27.025Z,40.05
2022-11-30T12:41:02.856Z,48.33
2022-11-30T12:43:44.000Z,39.83
2022-11-30T12:46:22.384Z,44.53
2022-11-30T12:49:00.992Z,43.17
2022-11-30T12:51:34.299Z,43.92
2022-11-30T12:54:08.775Z,48.33
2022-11-30T12:56:46.162Z,48.83
2022-11-30T12:59:31.611Z,54.42
2022-11-30T13:02:17.848Z,61.35
2022-11-30T13:04:56.359Z,70.30
2022-11-30T13:07:31.133Z,72.45
2022-11-30T13:10:01.547Z,61.78
2022-11-30T13:12:36.708Z,48.17
2022-11-30T13:15:09.823Z,52.33
2022-11-30T13:17:41.797Z,49.05
2022-11-30T13:20:21.239Z,48.63
2022-11-30T13:22:54.689Z,51.22
2022-11-30T13:26:06.147Z,57.28
2022-11-30T13:28:32.402Z,56.13
2022-11-30T13:31:06.833Z,55.63
2022-11-30T13:33:49.149Z,50.55
2022-11-30T13:36:28.070Z,58.10
2022-11-30T13:39:20.734Z,55.60
2022-11-30T13:41:50.379Z,53.03
2022-11-30T13:44:30.299Z,52.30
2022-11-30T13:46:58.287Z,47.75
2022-11-30T13:52:21.384Z,45.10
2022-11-30T13:57:19.932Z,48.25
2022-11-30T13:59:51.588Z,43.33
2022-11-30T14:02:59.185Z,47.60
2022-11-30T14:08:32.323Z,42.55
2022-11-30T14:11:38.376Z,45.83
2022-11-30T14:14:47.387Z,49.53
2022-11-30T14:17:20.206Z,44.22
2022-11-30T14:19:53.040Z,45.25
2022-11-30T14:22:20.743Z,47.85
2022-11-30T14:24:49.940Z,39.95
2022-11-30T14:27:21.064Z,46.58
2022-11-30T14:29:53.281Z,44.92
2022-11-30T14:32:30.129Z,41.83
2022-11-30T14:35:08.040Z,44.25
2022-11-30T14:40:11.941Z,54.70
2022-11-30T14:42:48.292Z,57.38
2022-11-30T14:45:21.160Z,57.35
2022-11-30T14:47:52.539Z,52.35
2022-11-30T14:50:24.245Z,47.80
2022-11-30T14:53:01.663Z,40.47
2022-11-30T14:55:34.367Z,50.33
2022-11-30T14:58:14.264Z,45.03
2022-11-30T15:00:44.712Z,52.17
2022-11-30T15:03:23.901Z,43.60
2022-11-30T15:05:53.044Z,48.17
2022-11-30T15:08:20.935Z,50.15
2022-11-30T15:10:48.874Z,42.35
2022-11-30T15:13:19.609Z,50.38
2022-11-30T15:15:52.421Z,50.60
2022-11-30T15:18:23.015Z,49.58
2022-11-30T15:20:55.364Z,62.50
2022-11-30T15:23:23.439Z,44.55
2022-11-30T15:28:24.044Z,47.35
2022-11-30T15:30:55.723Z,44.95
2022-11-30T15:33:29.955Z,44.80
2022-11-30T15:36:18.820Z,42.15
2022-11-30T15:38:51.004Z,44.80
2022-11-30T15:41:21.287Z,41.67
2022-11-30T15:43:51.444Z,40.83
2022-11-30T15:46:30.550Z,41.92
2022-11-30T15:49:18.847Z,54.97
2022-11-30T15:51:53.194Z,39.13
2022-11-30T15:54:44.939Z,39.65
2022-11-30T15:57:12.796Z,41.58
2022-11-30T15:59:41.343Z,40.70
2022-11-30T16:02:26.159Z,42.08
2022-11-30T16:05:23.940Z,43.42
2022-11-30T16:10:23.375Z,50.75
2022-11-30T16:12:53.526Z,43.50
2022-11-30T16:15:23.337Z,45.08
2022-11-30T16:17:52.076Z,42.90
2022-11-30T16:20:21.620Z,42.63
2022-11-30T16:22:50.125Z,48.63
2022-11-30T16:25:19.278Z,40.38
2022-11-30T16:27:47.603Z,49.08
2022-11-30T16:30:17.389Z,46.55
2022-11-30T16:32:45.336Z,41.15
2022-11-30T16:35:21.623Z,44.13
2022-11-30T16:37:50.915Z,52.53
2022-11-30T16:40:19.828Z,53.90
2022-11-30T16:42:49.703Z,51.97
2022-11-30T16:45:20.619Z,46.97
2022-11-30T16:47:48.130Z,43.25
2022-11-30T16:50:16.136Z,47.60
2022-11-30T16:55:15.297Z,46.72
2022-11-30T16:57:43.239Z,43.03
2022-11-30T17:00:13.155Z,48.42
2022-11-30T17:02:45.849Z,40.33
2022-11-30T17:05:16.071Z,43.50
2022-11-30T17:07:43.941Z,43.00
2022-11-30T17:10:12.805Z,41.25
2022-11-30T17:12:42.796Z,41.95
2022-11-30T17:15:15.349Z,43.42
2022-11-30T17:17:42.825Z,46.00
2022-11-30T17:20:11.096Z,43.55
2022-11-30T17:22:39.725Z,50.28
2022-11-30T17:25:12.353Z,43.95
2022-11-30T17:27:41.181Z,56.25
2022-11-30T17:30:09.897Z,52.90
2022-11-30T17:32:37.441Z,51.28
2022-11-30T17:35:05.260Z,48.72
2022-11-30T17:37:32.766Z,48.83
2022-11-30T17:40:00.508Z,53.22
2022-11-30T17:42:29.914Z,50.30
2022-11-30T17:44:58.735Z,53.55
2022-11-30T17:47:26.383Z,48.25
2022-11-30T17:49:53.875Z,46.45
2022-11-30T17:52:21.352Z,50.58
2022-11-30T17:54:49.101Z,50.47
2022-11-30T17:59:44.284Z,92.43
2022-11-30T18:02:13.468Z,53.58
2022-11-30T18:04:40.985Z,53.72
2022-11-30T18:07:08.648Z,55.13
2022-11-30T18:09:40.964Z,106.60
2022-11-30T18:12:10.587Z,134.50
2022-11-30T18:14:38.170Z,128.02
2022-11-30T18:17:05.825Z,75.63
2022-11-30T18:19:34.788Z,148.98
2022-11-30T18:22:02.311Z,141.20
2022-11-30T18:24:29.885Z,133.98
2022-11-30T18:26:57.365Z,112.43
2022-11-30T18:29:25.613Z,138.07
2022-11-30T18:31:53.271Z,199.70
2022-11-30T18:34:20.915Z,164.77
2022-11-30T18:36:49.815Z,105.95
2022-11-30T18:39:17.279Z,97.57
2022-11-30T18:41:44.933Z,62.05
2022-11-30T18:44:12.613Z,92.93
2022-11-30T18:46:40.146Z,120.05
2022-11-30T18:49:07.796Z,142.25
2022-11-30T18:51:35.596Z,123.57
2022-11-30T18:54:06.679Z,163.48
2022-11-30T18:56:37.394Z,135.48
2022-11-30T18:59:06.886Z,141.55
2022-11-30T19:01:36.062Z,182.40
2022-11-30T19:04:06.542Z,304.42
2022-11-30T19:06:34.677Z,327.55
2022-11-30T19:09:05.483Z,289.20
2022-11-30T19:11:33.413Z,234.15
2022-11-30T19:14:01.700Z,137.63
2022-11-30T19:16:30.824Z,184.40
2022-11-30T19:19:01.295Z,150.73
2022-11-30T19:21:29.367Z,205.35
2022-11-30T19:26:27.915Z,209.35
2022-11-30T19:28:55.868Z,288.58
2022-11-30T19:31:25.055Z,301.73
2022-11-30T19:33:54.886Z,323.27
2022-11-30T19:36:24.830Z,208.43
2022-11-30T19:38:52.489Z,178.68
2022-11-30T19:41:21.344Z,124.20
2022-11-30T19:44:01.004Z,95.43
2022-11-30T19:46:29.051Z,75.38
2022-11-30T19:48:58.032Z,71.88
2022-11-30T19:51:25.584Z,69.25
2022-11-30T19:53:55.610Z,77.63
2022-11-30T19:56:24.067Z,109.43
2022-11-30T19:58:53.296Z,125.05
2022-11-30T20:01:23.712Z,128.75
2022-11-30T20:03:51.501Z,123.68
2022-11-30T20:06:19.329Z,116.35
2022-11-30T20:08:46.895Z,93.35
2022-11-30T20:11:16.299Z,104.50
2022-11-30T20:13:44.263Z,103.03
2022-11-30T20:16:14.852Z,115.18
2022-11-30T20:18:46.025Z,91.75
2022-11-30T20:21:15.605Z,104.13
2022-11-30T20:23:44.239Z,91.97
2022-11-30T20:26:17.487Z,96.32
2022-11-30T20:28:45.746Z,94.57
2022-11-30T20:31:16.320Z,105.68
2022-11-30T20:33:44.513Z,109.25
2022-11-30T20:36:14.057Z,99.78
2022-11-30T20:38:41.647Z,75.75
2022-11-30T20:41:12.029Z,77.03
2022-11-30T20:43:39.576Z,74.70
2022-11-30T20:46:15.468Z,70.97
2022-11-30T20:48:46.631Z,68.63
2022-11-30T20:51:32.431Z,75.82
2022-11-30T20:54:02.558Z,97.22
2022-11-30T20:56:30.059Z,100.30
2022-11-30T20:59:01.189Z,77.07
2022-11-30T21:01:30.166Z,88.38
2022-11-30T21:03:59.439Z,102.63
2022-11-30T21:06:27.067Z,105.43
2022-11-30T21:08:54.663Z,113.93
2022-11-30T21:11:23.192Z,110.65
2022-11-30T21:13:51.917Z,100.65
2022-11-30T21:16:27.363Z,81.22
2022-11-30T21:18:57.699Z,80.20
2022-11-30T21:21:28.074Z,86.30
2022-11-30T21:23:55.607Z,93.78
2022-11-30T21:26:24.542Z,95.18
2022-11-30T21:28:54.412Z,73.75
2022-11-30T21:31:22.405Z,83.78
2022-11-30T21:36:23.782Z,116.35
2022-11-30T21:38:58.160Z,116.13
2022-11-30T21:41:30.522Z,111.78
2022-11-30T21:43:58.012Z,122.90
2022-11-30T21:46:25.520Z,103.75
2022-11-30T21:48:53.550Z,115.13
